Time;durP1;ratioP1;P1;durP2;ratioP2;P2;SDS_P1;SDS_P2;PMS_P1;PMS_P2;Temp;Humidity;BMP_temperature;BMP_pressure;BME280_temperature;BME280_humidity;BME280_pressure;Samples;Min_cycle;Max_cycle;Signal;HPM_P1;HPM_P2
2021/10/19 00:02:03;;;;;;;28.77;15.77;;;;;;;;;;5073041;28;20182;-88
2021/10/19 00:04:48;;;;;;;18.60;14.53;;;;;;;;;;5072909;28;20197;-87
2021/10/19 00:07:33;;;;;;;27.80;14.73;;;;;;;;;;5072827;28;20267;-86
2021/10/19 00:10:18;;;;;;;17.13;15.30;;;;;;;;;;5072890;28;20202;-87
2021/10/19 00:13:03;;;;;;;36.03;14.37;;;;;;;;;;5072785;28;20665;-86
2021/10/19 00:15:48;;;;;;;16.10;14.40;;;;;;;;;;5072587;28;20186;-87
2021/10/19 00:18:34;;;;;;;21.70;14.63;;;;;;;;;;5072287;28;20193;-86
2021/10/19 00:21:19;;;;;;;48.63;14.87;;;;;;;;;;5070785;28;20233;-85
2021/10/19 00:24:05;;;;;;;17.37;13.93;;;;;;;;;;5072403;28;20190;-87
2021/10/19 00:26:50;;;;;;;30.30;14.67;;;;;;;;;;5072318;28;20212;-87
2021/10/19 00:29:35;;;;;;;58.10;15.27;;;;;;;;;;5072347;28;20209;-86
2021/10/19 00:32:20;;;;;;;53.60;15.70;;;;;;;;;;5072339;28;20735;-87
2021/10/19 00:35:07;;;;;;;54.20;16.80;;;;;;;;;;5072362;28;20190;-86
2021/10/19 00:37:52;;;;;;;29.47;16.23;;;;;;;;;;5071994;28;20193;-87
2021/10/19 00:40:37;;;;;;;29.10;17.37;;;;;;;;;;5072109;28;20186;-87
2021/10/19 00:43:23;;;;;;;74.93;24.20;;;;;;;;;;5071752;28;20235;-86
2021/10/19 00:46:12;;;;;;;42.97;19.07;;;;;;;;;;5072104;28;20186;-86
2021/10/19 00:48:57;;;;;;;35.07;17.77;;;;;;;;;;5071823;28;20190;-88
2021/10/19 00:51:43;;;;;;;69.67;15.17;;;;;;;;;;5071752;28;20221;-85
2021/10/19 00:54:28;;;;;;;22.10;15.97;;;;;;;;;;5071854;28;20190;-86
2021/10/19 00:57:13;;;;;;;76.03;17.27;;;;;;;;;;5072093;28;20242;-87
2021/10/19 00:59:59;;;;;;;24.83;16.97;;;;;;;;;;5072059;28;20187;-87
2021/10/19 01:02:44;;;;;;;37.00;15.07;;;;;;;;;;5072013;28;20225;-87
2021/10/19 01:05:29;;;;;;;33.17;15.63;;;;;;;;;;5072102;28;20190;-87
2021/10/19 01:08:15;;;;;;;46.30;16.40;;;;;;;;;;5071818;28;20217;-86
2021/10/19 01:11:00;;;;;;;79.87;16.63;;;;;;;;;;5071707;28;20209;-86
2021/10/19 01:13:45;;;;;;;58.97;17.27;;;;;;;;;;5072105;28;20186;-88
2021/10/19 01:16:31;;;;;;;62.13;17.77;;;;;;;;;;5072005;28;20190;-86
2021/10/19 01:19:20;;;;;;;34.27;17.50;;;;;;;;;;5071595;28;20190;-87
2021/10/19 01:22:08;;;;;;;40.03;17.90;;;;;;;;;;5071694;28;20190;-87
2021/10/19 01:24:53;;;;;;;79.20;21.47;;;;;;;;;;5071407;28;20185;-87
2021/10/19 01:27:44;;;;;;;45.00;19.60;;;;;;;;;;5071562;28;20675;-86
2021/10/19 01:30:29;;;;;;;69.37;19.30;;;;;;;;;;5071696;28;20202;-86
2021/10/19 01:33:15;;;;;;;117.87;20.70;;;;;;;;;;5071725;28;20189;-86
2021/10/19 01:36:00;;;;;;;55.37;18.73;;;;;;;;;;5071483;28;20198;-87
2021/10/19 01:38:46;;;;;;;45.20;18.50;;;;;;;;;;5071540;28;20258;-86
2021/10/19 01:41:31;;;;;;;75.07;19.07;;;;;;;;;;5071444;28;20255;-87
2021/10/19 01:44:16;;;;;;;35.17;18.60;;;;;;;;;;5071227;28;20661;-87
2021/10/19 01:47:01;;;;;;;51.63;18.23;;;;;;;;;;5071262;28;20205;-86
2021/10/19 01:49:46;;;;;;;41.03;19.43;;;;;;;;;;5071104;28;20705;-86
2021/10/19 01:52:31;;;;;;;34.13;18.90;;;;;;;;;;5071185;28;20685;-88
2021/10/19 01:55:17;;;;;;;30.33;18.70;;;;;;;;;;5071461;28;20186;-88
2021/10/19 01:58:03;;;;;;;52.37;18.60;;;;;;;;;;5074992;28;20210;-86
2021/10/19 02:00:48;;;;;;;53.57;19.10;;;;;;;;;;5074891;28;20644;-87
2021/10/19 02:03:33;;;;;;;37.60;19.93;;;;;;;;;;5075001;28;20256;-86
2021/10/19 02:06:18;;;;;;;36.93;20.03;;;;;;;;;;5074920;28;20194;-87
2021/10/19 02:09:03;;;;;;;31.40;20.20;;;;;;;;;;5074979;28;20189;-87
2021/10/19 02:11:50;;;;;;;58.90;20.17;;;;;;;;;;5074570;28;20700;-87
2021/10/19 02:14:34;;;;;;;62.17;20.17;;;;;;;;;;5074718;28;20190;-88
2021/10/19 02:17:20;;;;;;;31.33;18.80;;;;;;;;;;5074574;28;20182;-87
2021/10/19 02:20:06;;;;;;;31.57;18.07;;;;;;;;;;5074478;28;20229;-87
2021/10/19 02:22:51;;;;;;;47.67;18.63;;;;;;;;;;5074224;28;20198;-86
2021/10/19 02:25:37;;;;;;;91.23;18.70;;;;;;;;;;5074531;28;20297;-84
2021/10/19 02:28:32;;;;;;;60.00;18.53;;;;;;;;;;5074798;28;20316;-87
2021/10/19 02:31:18;;;;;;;42.63;17.93;;;;;;;;;;5074724;28;20677;-86
2021/10/19 02:34:03;;;;;;;62.80;18.63;;;;;;;;;;5074487;28;20267;-86
2021/10/19 02:36:47;;;;;;;34.50;18.70;;;;;;;;;;5074330;28;20189;-86
2021/10/19 02:39:32;;;;;;;48.63;18.53;;;;;;;;;;5074568;28;20189;-86
2021/10/19 02:42:17;;;;;;;24.43;17.10;;;;;;;;;;5074339;28;20186;-87
2021/10/19 02:45:04;;;;;;;28.90;18.20;;;;;;;;;;5074405;28;20230;-86
2021/10/19 02:47:49;;;;;;;28.97;17.23;;;;;;;;;;5074167;28;20304;-86
2021/10/19 02:50:34;;;;;;;40.27;19.10;;;;;;;;;;5073895;28;20233;-87
2021/10/19 02:53:19;;;;;;;28.83;18.07;;;;;;;;;;5074167;28;20820;-86
2021/10/19 02:56:04;;;;;;;27.13;17.20;;;;;;;;;;5074204;28;20549;-87
2021/10/19 02:58:50;;;;;;;25.80;17.00;;;;;;;;;;5073780;28;20240;-86
2021/10/19 03:01:37;;;;;;;39.13;17.27;;;;;;;;;;5073930;28;20182;-84
2021/10/19 03:04:22;;;;;;;35.00;17.50;;;;;;;;;;5073847;28;20194;-87
2021/10/19 03:07:07;;;;;;;27.87;16.93;;;;;;;;;;5073810;28;20556;-87
2021/10/19 03:09:52;;;;;;;27.43;17.37;;;;;;;;;;5073485;28;20198;-86
2021/10/19 03:12:37;;;;;;;38.43;17.53;;;;;;;;;;5073483;28;20214;-86
2021/10/19 03:15:24;;;;;;;35.67;17.20;;;;;;;;;;5073548;28;20316;-86
2021/10/19 03:18:10;;;;;;;31.90;17.73;;;;;;;;;;5073898;28;20194;-86
2021/10/19 03:20:55;;;;;;;28.20;17.63;;;;;;;;;;5073266;28;20230;-86
2021/10/19 03:23:40;;;;;;;26.13;16.43;;;;;;;;;;5073547;28;20570;-86
2021/10/19 03:26:25;;;;;;;38.77;17.87;;;;;;;;;;5073289;28;20177;-84
2021/10/19 03:29:10;;;;;;;25.70;16.47;;;;;;;;;;5073429;28;20194;-85
2021/10/19 03:31:55;;;;;;;27.07;15.90;;;;;;;;;;5073016;28;20230;-85
2021/10/19 03:34:41;;;;;;;25.37;15.47;;;;;;;;;;5073073;28;20186;-85
2021/10/19 03:37:27;;;;;;;24.43;16.17;;;;;;;;;;5073143;28;20291;-84
2021/10/19 03:40:12;;;;;;;23.97;15.27;;;;;;;;;;5073117;28;20186;-84
2021/10/19 03:42:57;;;;;;;25.63;15.37;;;;;;;;;;5072993;28;20680;-85
2021/10/19 03:45:42;;;;;;;27.47;16.23;;;;;;;;;;5072758;28;20623;-85
2021/10/19 03:48:27;;;;;;;32.53;15.87;;;;;;;;;;5073025;28;20190;-85
2021/10/19 03:51:14;;;;;;;47.73;16.50;;;;;;;;;;5072626;28;20245;-85
2021/10/19 03:53:59;;;;;;;24.13;16.40;;;;;;;;;;5072908;28;20177;-84
2021/10/19 03:56:44;;;;;;;25.83;16.17;;;;;;;;;;5073049;28;20193;-83
2021/10/19 03:59:29;;;;;;;22.83;15.83;;;;;;;;;;5072663;28;20190;-82
2021/10/19 04:02:14;;;;;;;21.57;14.90;;;;;;;;;;5072695;28;20268;-82
2021/10/19 04:04:59;;;;;;;20.00;14.93;;;;;;;;;;5072455;28;20189;-83
2021/10/19 04:07:46;;;;;;;23.70;15.40;;;;;;;;;;5072354;28;20240;-84
2021/10/19 04:10:31;;;;;;;22.77;14.83;;;;;;;;;;5055174;28;20214;-86
2021/10/19 04:13:16;;;;;;;25.47;15.57;;;;;;;;;;5052154;28;20342;-84
2021/10/19 04:16:01;;;;;;;21.40;14.13;;;;;;;;;;5052458;28;20325;-83
2021/10/19 04:18:46;;;;;;;21.00;14.83;;;;;;;;;;5058273;28;20654;-85
2021/10/19 04:21:31;;;;;;;21.90;13.77;;;;;;;;;;5071748;28;20221;-84
2021/10/19 04:24:17;;;;;;;20.73;14.07;;;;;;;;;;5071550;28;20773;-84
2021/10/19 04:27:02;;;;;;;18.40;14.07;;;;;;;;;;5072125;28;20198;-83
2021/10/19 04:29:48;;;;;;;20.53;14.27;;;;;;;;;;5072334;28;20205;-89
2021/10/19 04:32:32;;;;;;;21.50;14.37;;;;;;;;;;5071828;28;20697;-82
2021/10/19 04:35:17;;;;;;;20.20;14.37;;;;;;;;;;5072296;28;20198;-83
2021/10/19 04:38:03;;;;;;;19.83;13.90;;;;;;;;;;5072029;28;20190;-83
2021/10/19 04:40:49;;;;;;;20.37;13.47;;;;;;;;;;5071782;28;20308;-85
2021/10/19 04:43:34;;;;;;;20.13;14.30;;;;;;;;;;5071594;28;20721;-85
2021/10/19 04:46:19;;;;;;;21.27;13.70;;;;;;;;;;5071609;28;20654;-87
2021/10/19 04:49:04;;;;;;;18.27;13.07;;;;;;;;;;5071338;28;20193;-86
2021/10/19 04:51:49;;;;;;;20.57;13.43;;;;;;;;;;5060197;28;20218;-83
2021/10/19 04:54:34;;;;;;;19.30;13.27;;;;;;;;;;5051752;28;20191;-82
2021/10/19 04:57:20;;;;;;;21.53;13.43;;;;;;;;;;5051781;28;20544;-85
2021/10/19 05:00:06;;;;;;;17.77;13.10;;;;;;;;;;5051502;28;20187;-85
2021/10/19 05:02:51;;;;;;;21.53;13.10;;;;;;;;;;5057500;28;20256;-85
2021/10/19 05:05:36;;;;;;;16.43;12.67;;;;;;;;;;5071336;28;20260;-87
2021/10/19 05:08:22;;;;;;;16.93;12.63;;;;;;;;;;5071404;28;20194;-84
2021/10/19 05:11:07;;;;;;;17.70;12.17;;;;;;;;;;5071676;28;20186;-83
2021/10/19 05:13:53;;;;;;;18.73;13.00;;;;;;;;;;5071197;28;20328;-83
2021/10/19 05:16:38;;;;;;;16.07;11.23;;;;;;;;;;5071079;28;20279;-81
2021/10/19 05:19:23;;;;;;;15.80;12.40;;;;;;;;;;5070894;28;20182;-82
2021/10/19 05:22:08;;;;;;;18.90;13.30;;;;;;;;;;5071147;28;20348;-82
2021/10/19 05:24:53;;;;;;;16.20;12.13;;;;;;;;;;5071190;28;20206;-82
2021/10/19 05:27:38;;;;;;;17.67;12.10;;;;;;;;;;5071048;28;20182;-82
2021/10/19 05:30:24;;;;;;;16.10;12.87;;;;;;;;;;5071735;28;20660;-83
2021/10/19 05:33:09;;;;;;;19.33;12.50;;;;;;;;;;5075602;28;20204;-85
2021/10/19 05:35:54;;;;;;;15.63;12.77;;;;;;;;;;5075594;28;20232;-82
2021/10/19 05:38:39;;;;;;;17.70;12.37;;;;;;;;;;5075703;28;20185;-83
2021/10/19 05:41:24;;;;;;;14.70;11.17;;;;;;;;;;5076070;28;20669;-82
2021/10/19 05:44:09;;;;;;;15.73;12.17;;;;;;;;;;5075473;28;20178;-83
2021/10/19 05:46:55;;;;;;;17.27;12.73;;;;;;;;;;5075194;28;20285;-83
2021/10/19 05:49:40;;;;;;;17.60;12.50;;;;;;;;;;5075247;28;20273;-83
2021/10/19 05:52:25;;;;;;;16.83;12.67;;;;;;;;;;5075488;28;20720;-82
2021/10/19 05:55:11;;;;;;;16.03;12.30;;;;;;;;;;5075181;28;20313;-82
2021/10/19 05:57:56;;;;;;;17.10;13.27;;;;;;;;;;5075087;28;20661;-82
2021/10/19 06:00:41;;;;;;;15.00;12.57;;;;;;;;;;5074981;28;20190;-80
2021/10/19 06:03:27;;;;;;;13.87;11.73;;;;;;;;;;5075123;28;20256;-80
2021/10/19 06:06:13;;;;;;;14.63;11.23;;;;;;;;;;5074889;28;20185;-81
2021/10/19 06:08:58;;;;;;;15.50;11.57;;;;;;;;;;5075043;28;20267;-82
2021/10/19 06:11:43;;;;;;;14.17;11.57;;;;;;;;;;5075042;28;20190;-82
2021/10/19 06:14:28;;;;;;;14.00;11.90;;;;;;;;;;5074989;28;20701;-83
2021/10/19 06:17:13;;;;;;;15.03;11.30;;;;;;;;;;5074667;28;20189;-81
2021/10/19 06:20:00;;;;;;;16.97;11.60;;;;;;;;;;5074387;28;20307;-81
2021/10/19 06:22:44;;;;;;;15.97;12.93;;;;;;;;;;5074823;28;20269;-80
2021/10/19 06:25:30;;;;;;;14.40;11.43;;;;;;;;;;5074824;28;20181;-80
2021/10/19 06:28:15;;;;;;;16.00;12.20;;;;;;;;;;5074545;28;20256;-79
2021/10/19 06:31:00;;;;;;;14.77;11.40;;;;;;;;;;5074610;28;20185;-79
2021/10/19 06:33:45;;;;;;;12.20;10.93;;;;;;;;;;5074425;28;20209;-79
2021/10/19 06:36:31;;;;;;;12.63;10.97;;;;;;;;;;5074716;28;20193;-80
2021/10/19 06:39:16;;;;;;;11.87;10.70;;;;;;;;;;5074487;28;20193;-79
2021/10/19 06:42:01;;;;;;;14.00;11.40;;;;;;;;;;5073832;28;20186;-80
2021/10/19 06:44:46;;;;;;;12.63;10.80;;;;;;;;;;5074204;28;20276;-80
2021/10/19 06:47:31;;;;;;;14.30;11.27;;;;;;;;;;5074517;28;20232;-80
2021/10/19 06:50:17;;;;;;;14.73;11.80;;;;;;;;;;5074189;28;20299;-77
2021/10/19 06:53:04;;;;;;;14.10;11.07;;;;;;;;;;5074117;28;20552;-81
2021/10/19 06:55:48;;;;;;;14.70;11.83;;;;;;;;;;5074148;28;20186;-80
2021/10/19 06:58:33;;;;;;;15.30;12.23;;;;;;;;;;5074075;28;20206;-79
2021/10/19 07:01:19;;;;;;;13.90;12.03;;;;;;;;;;5074084;28;20190;-80
2021/10/19 07:04:05;;;;;;;16.80;12.07;;;;;;;;;;5074029;28;20266;-79
2021/10/19 07:06:50;;;;;;;12.80;11.40;;;;;;;;;;5073577;28;20194;-79
2021/10/19 07:09:37;;;;;;;13.47;11.97;;;;;;;;;;5073878;28;20196;-80
2021/10/19 07:12:22;;;;;;;14.80;11.73;;;;;;;;;;5073853;28;20177;-78
2021/10/19 07:15:09;;;;;;;13.07;11.00;;;;;;;;;;5073713;28;20217;-79
2021/10/19 07:17:54;;;;;;;12.33;10.43;;;;;;;;;;5073501;28;20313;-80
2021/10/19 07:20:39;;;;;;;13.37;10.77;;;;;;;;;;5073384;28;20234;-80
2021/10/19 07:23:24;;;;;;;14.20;11.10;;;;;;;;;;5073437;28;20185;-79
2021/10/19 07:26:10;;;;;;;12.57;11.17;;;;;;;;;;5073568;28;20190;-79
2021/10/19 07:28:55;;;;;;;16.10;11.70;;;;;;;;;;5073271;28;20298;-78
2021/10/19 07:31:40;;;;;;;14.70;12.23;;;;;;;;;;5073211;28;20220;-78
2021/10/19 07:34:25;;;;;;;11.90;10.70;;;;;;;;;;5073345;28;20214;-78
2021/10/19 07:37:10;;;;;;;16.57;12.07;;;;;;;;;;5073248;28;20190;-80
2021/10/19 07:39:55;;;;;;;15.07;12.30;;;;;;;;;;5073164;28;20197;-78
2021/10/19 07:42:42;;;;;;;14.50;11.63;;;;;;;;;;5073543;28;20654;-80
2021/10/19 07:45:28;;;;;;;13.90;12.27;;;;;;;;;;5073473;28;20681;-79
2021/10/19 07:48:14;;;;;;;15.17;11.63;;;;;;;;;;5073154;28;20260;-80
2021/10/19 07:50:59;;;;;;;13.13;11.53;;;;;;;;;;5073077;28;20229;-80
2021/10/19 07:53:44;;;;;;;15.03;11.70;;;;;;;;;;5071994;28;20774;-80
2021/10/19 07:56:29;;;;;;;16.10;12.10;;;;;;;;;;5073118;28;20185;-81
2021/10/19 07:59:16;;;;;;;13.53;11.70;;;;;;;;;;5073012;28;20574;-79
2021/10/19 08:02:01;;;;;;;13.40;11.60;;;;;;;;;;5072930;28;20321;-79
2021/10/19 08:04:46;;;;;;;12.33;11.00;;;;;;;;;;5072899;28;20189;-79
2021/10/19 08:07:31;;;;;;;15.03;11.90;;;;;;;;;;5072710;28;20190;-78
2021/10/19 08:10:17;;;;;;;14.07;12.23;;;;;;;;;;5072819;28;20244;-78
2021/10/19 08:13:01;;;;;;;13.70;11.60;;;;;;;;;;5072470;28;20225;-78
2021/10/19 08:15:48;;;;;;;14.07;11.83;;;;;;;;;;5072447;28;20194;-79
2021/10/19 08:18:33;;;;;;;14.47;12.20;;;;;;;;;;5057454;28;20321;-78
2021/10/19 08:21:18;;;;;;;15.27;12.03;;;;;;;;;;5072329;28;20307;-79
2021/10/19 08:24:03;;;;;;;14.90;12.53;;;;;;;;;;5072613;28;20177;-78
2021/10/19 08:26:49;;;;;;;16.03;12.00;;;;;;;;;;5072187;28;20189;-80
2021/10/19 08:29:34;;;;;;;14.30;12.53;;;;;;;;;;5072365;28;20190;-80
2021/10/19 08:32:20;;;;;;;17.03;12.23;;;;;;;;;;5072297;28;20552;-79
2021/10/19 08:35:06;;;;;;;16.70;12.87;;;;;;;;;;5072339;28;20303;-79
2021/10/19 08:37:52;;;;;;;16.93;13.57;;;;;;;;;;5072143;28;20186;-79
2021/10/19 08:40:37;;;;;;;15.67;13.20;;;;;;;;;;5072112;28;20224;-80
2021/10/19 08:43:22;;;;;;;16.43;12.63;;;;;;;;;;5072088;28;20317;-81
2021/10/19 08:46:07;;;;;;;16.23;12.63;;;;;;;;;;5072246;28;20178;-79
2021/10/19 08:48:54;;;;;;;22.43;15.47;;;;;;;;;;5071887;28;20244;-80
2021/10/19 08:51:40;;;;;;;18.77;13.00;;;;;;;;;;5071872;28;20248;-80
2021/10/19 08:54:25;;;;;;;14.87;13.23;;;;;;;;;;5072011;28;20256;-81
2021/10/19 08:57:13;;;;;;;15.27;12.77;;;;;;;;;;5072122;28;20185;-80
2021/10/19 08:59:58;;;;;;;15.40;13.40;;;;;;;;;;5071928;28;20216;-81
2021/10/19 09:02:44;;;;;;;17.77;13.13;;;;;;;;;;5071945;28;20189;-82
2021/10/19 09:05:30;;;;;;;16.53;12.97;;;;;;;;;;5071693;28;20209;-80
2021/10/19 09:08:18;;;;;;;14.67;12.33;;;;;;;;;;5072091;28;20186;-81
2021/10/19 09:11:12;;;;;;;16.83;13.83;;;;;;;;;;5071976;28;20197;-79
2021/10/19 09:13:57;;;;;;;15.00;12.93;;;;;;;;;;5071747;28;20282;-80
2021/10/19 09:16:43;;;;;;;14.27;12.67;;;;;;;;;;5071847;28;20182;-80
2021/10/19 09:19:29;;;;;;;14.50;12.60;;;;;;;;;;5071500;28;20606;-80
2021/10/19 09:22:18;;;;;;;24.43;13.73;;;;;;;;;;5071714;28;20185;-81
2021/10/19 09:25:03;;;;;;;16.90;12.97;;;;;;;;;;5071733;28;20186;-80
2021/10/19 09:27:48;;;;;;;14.30;12.27;;;;;;;;;;5071615;28;20571;-80
2021/10/19 09:30:34;;;;;;;20.30;13.30;;;;;;;;;;5071648;28;20190;-80
2021/10/19 09:33:20;;;;;;;18.20;13.27;;;;;;;;;;5071593;28;20224;-81
2021/10/19 09:36:05;;;;;;;17.17;13.40;;;;;;;;;;5071716;28;20291;-81
2021/10/19 09:38:51;;;;;;;15.77;13.27;;;;;;;;;;5071457;28;20713;-80
2021/10/19 09:41:43;;;;;;;17.40;13.20;;;;;;;;;;5072353;28;20700;-82
2021/10/19 09:44:28;;;;;;;16.17;13.10;;;;;;;;;;5071355;28;20182;-80
2021/10/19 09:47:14;;;;;;;14.50;12.73;;;;;;;;;;5071591;28;20275;-79
2021/10/19 09:49:59;;;;;;;15.77;12.63;;;;;;;;;;5071601;28;20227;-81
2021/10/19 09:52:46;;;;;;;17.10;13.00;;;;;;;;;;5071581;28;20563;-81
2021/10/19 09:55:33;;;;;;;14.50;12.90;;;;;;;;;;5071385;28;20213;-81
2021/10/19 09:58:18;;;;;;;16.47;11.60;;;;;;;;;;5071392;28;20186;-81
2021/10/19 10:01:10;;;;;;;17.50;12.00;;;;;;;;;;5071426;28;20229;-82
2021/10/19 10:03:56;;;;;;;13.90;12.23;;;;;;;;;;5071268;28;20551;-80
2021/10/19 10:06:42;;;;;;;17.23;12.17;;;;;;;;;;5071209;28;20200;-81
2021/10/19 10:09:27;;;;;;;17.37;12.13;;;;;;;;;;5071705;28;20190;-80
2021/10/19 10:12:13;;;;;;;13.77;12.10;;;;;;;;;;5071265;28;20205;-82
2021/10/19 10:14:58;;;;;;;13.80;11.87;;;;;;;;;;5070979;28;20292;-81
2021/10/19 10:17:49;;;;;;;17.70;12.20;;;;;;;;;;5073153;28;20193;-82
2021/10/19 10:20:35;;;;;;;14.03;12.17;;;;;;;;;;5074844;28;20709;-81
2021/10/19 10:23:22;;;;;;;14.07;11.50;;;;;;;;;;5074755;28;20186;-82
2021/10/19 10:26:10;;;;;;;15.43;11.70;;;;;;;;;;5074817;28;20182;-81
2021/10/19 10:29:07;;;;;;;18.23;12.30;;;;;;;;;;5074559;28;20285;-79
2021/10/19 10:31:53;;;;;;;12.17;10.97;;;;;;;;;;5074360;28;20186;-83
2021/10/19 10:34:38;;;;;;;12.77;11.20;;;;;;;;;;5074296;28;20209;-82
2021/10/19 10:37:23;;;;;;;12.77;11.37;;;;;;;;;;5074637;28;20665;-84
2021/10/19 10:40:10;;;;;;;16.53;12.63;;;;;;;;;;5074328;28;20210;-82
2021/10/19 10:42:56;;;;;;;16.43;11.60;;;;;;;;;;5074252;28;20190;-81
2021/10/19 10:45:42;;;;;;;14.57;11.20;;;;;;;;;;5074270;28;20181;-84
2021/10/19 10:48:28;;;;;;;13.57;10.93;;;;;;;;;;5074530;28;20209;-83
2021/10/19 10:51:14;;;;;;;12.17;10.97;;;;;;;;;;5074144;28;20684;-83
2021/10/19 10:53:59;;;;;;;12.47;11.03;;;;;;;;;;5074086;28;20268;-82
2021/10/19 10:56:46;;;;;;;13.03;10.57;;;;;;;;;;5074143;28;20212;-82
2021/10/19 10:59:32;;;;;;;14.73;11.03;;;;;;;;;;5074194;28;20572;-84
2021/10/19 11:02:19;;;;;;;15.23;11.13;;;;;;;;;;5074149;28;20197;-83
2021/10/19 11:05:04;;;;;;;14.73;11.40;;;;;;;;;;5074006;28;20186;-83
2021/10/19 11:07:49;;;;;;;16.30;12.47;;;;;;;;;;5074059;28;20185;-83
2021/10/19 11:10:34;;;;;;;13.20;10.53;;;;;;;;;;5073947;28;20540;-81
2021/10/19 11:13:20;;;;;;;13.97;11.20;;;;;;;;;;5073970;28;20268;-82
2021/10/19 11:16:05;;;;;;;13.10;10.90;;;;;;;;;;5073562;28;20328;-82
2021/10/19 11:18:53;;;;;;;15.50;10.53;;;;;;;;;;5073768;28;20360;-84
2021/10/19 11:21:38;;;;;;;12.10;10.77;;;;;;;;;;5053409;28;20541;-83
2021/10/19 11:24:24;;;;;;;11.93;10.70;;;;;;;;;;5053451;28;20183;-83
2021/10/19 11:27:09;;;;;;;12.20;10.23;;;;;;;;;;5053326;28;20183;-81
2021/10/19 11:29:55;;;;;;;11.13;10.00;;;;;;;;;;5053468;28;20210;-82
2021/10/19 11:32:40;;;;;;;11.20;10.00;;;;;;;;;;5053665;28;20202;-84
2021/10/19 11:35:26;;;;;;;11.33;9.63;;;;;;;;;;5053356;28;20202;-81
2021/10/19 11:38:11;;;;;;;12.30;9.90;;;;;;;;;;5053319;28;20249;-83
2021/10/19 11:41:04;;;;;;;11.13;9.33;;;;;;;;;;5053233;28;20186;-82
2021/10/19 11:43:50;;;;;;;11.50;9.50;;;;;;;;;;5053083;28;20210;-82
2021/10/19 11:46:36;;;;;;;10.37;9.37;;;;;;;;;;5053062;28;20393;-83
2021/10/19 11:49:22;;;;;;;10.80;9.17;;;;;;;;;;5053135;28;20278;-84
2021/10/19 11:52:09;;;;;;;10.20;9.20;;;;;;;;;;5053351;28;20240;-80
2021/10/19 11:54:54;;;;;;;9.67;8.67;;;;;;;;;;5052860;28;20198;-84
2021/10/19 11:57:39;;;;;;;9.37;8.40;;;;;;;;;;5052803;28;20183;-80
2021/10/19 12:00:25;;;;;;;8.80;8.00;;;;;;;;;;5052616;28;20199;-82
2021/10/19 12:03:11;;;;;;;12.23;8.20;;;;;;;;;;5052711;28;20194;-82
2021/10/19 12:05:56;;;;;;;10.10;7.47;;;;;;;;;;5052725;28;20663;-83
2021/10/19 12:08:43;;;;;;;8.37;7.53;;;;;;;;;;5052638;28;20183;-82
2021/10/19 12:11:28;;;;;;;8.97;8.07;;;;;;;;;;5052434;28;20998;-82
2021/10/19 12:14:13;;;;;;;10.00;7.60;;;;;;;;;;5052569;28;20191;-83
2021/10/19 12:17:00;;;;;;;9.17;7.60;;;;;;;;;;5052315;28;20601;-81
2021/10/19 12:19:52;;;;;;;7.83;7.13;;;;;;;;;;5057097;28;20234;-82
2021/10/19 12:22:37;;;;;;;8.47;7.67;;;;;;;;;;5072144;28;20182;-82
2021/10/19 12:25:24;;;;;;;11.30;8.63;;;;;;;;;;5072186;28;20186;-83
2021/10/19 12:28:16;;;;;;;11.23;8.43;;;;;;;;;;5072282;28;20190;-83
2021/10/19 12:31:02;;;;;;;9.33;8.17;;;;;;;;;;5071948;28;20312;-83
2021/10/19 12:33:53;;;;;;;12.20;8.17;;;;;;;;;;5071837;28;20186;-84
2021/10/19 12:36:39;;;;;;;10.50;8.40;;;;;;;;;;5072214;28;20308;-82
2021/10/19 12:39:25;;;;;;;12.93;10.13;;;;;;;;;;5071753;28;20661;-85
2021/10/19 12:42:12;;;;;;;10.67;9.60;;;;;;;;;;5071871;28;20189;-85
2021/10/19 12:44:57;;;;;;;14.80;10.80;;;;;;;;;;5072072;28;20198;-84
2021/10/19 12:47:43;;;;;;;14.67;10.70;;;;;;;;;;5071694;28;20316;-84
2021/10/19 12:50:28;;;;;;;9.73;8.83;;;;;;;;;;5071852;28;20241;-84
2021/10/19 12:53:12;;;;;;;10.77;8.83;;;;;;;;;;5072199;28;20727;-84
2021/10/19 12:55:58;;;;;;;10.80;8.47;;;;;;;;;;5071815;28;20244;-84
2021/10/19 12:58:44;;;;;;;9.67;8.37;;;;;;;;;;5071737;28;20185;-84
2021/10/19 13:01:30;;;;;;;8.23;7.40;;;;;;;;;;5072013;28;20653;-84
2021/10/19 13:04:15;;;;;;;8.00;7.10;;;;;;;;;;5071724;28;20266;-84
2021/10/19 13:06:59;;;;;;;8.33;7.37;;;;;;;;;;5071782;28;20552;-85
2021/10/19 13:09:44;;;;;;;9.27;7.23;;;;;;;;;;5071638;28;20622;-84
2021/10/19 13:12:30;;;;;;;8.00;7.20;;;;;;;;;;5071765;28;20320;-85
2021/10/19 13:15:16;;;;;;;9.87;7.20;;;;;;;;;;5071709;28;20201;-83
2021/10/19 13:18:01;;;;;;;8.90;6.80;;;;;;;;;;5071591;28;20682;-85
2021/10/19 13:20:46;;;;;;;7.67;6.73;;;;;;;;;;5071460;28;20736;-85
2021/10/19 13:23:32;;;;;;;8.17;6.87;;;;;;;;;;5071575;28;20185;-85
2021/10/19 13:26:18;;;;;;;7.33;6.50;;;;;;;;;;5071580;28;20181;-84
2021/10/19 13:29:03;;;;;;;8.80;6.57;;;;;;;;;;5071667;28;20785;-85
2021/10/19 13:31:49;;;;;;;8.57;6.23;;;;;;;;;;5071580;28;20189;-84
2021/10/19 13:34:34;;;;;;;8.93;7.67;;;;;;;;;;5071591;28;20744;-85
2021/10/19 13:37:19;;;;;;;7.10;6.40;;;;;;;;;;5071517;28;20228;-85
2021/10/19 13:40:06;;;;;;;7.40;6.37;;;;;;;;;;5072197;28;20666;-85
2021/10/19 13:42:51;;;;;;;7.50;6.17;;;;;;;;;;5071670;28;20186;-84
2021/10/19 13:45:36;;;;;;;6.93;6.10;;;;;;;;;;5071949;28;20202;-85
2021/10/19 13:48:22;;;;;;;6.90;6.17;;;;;;;;;;5071958;28;20283;-85
2021/10/19 13:51:07;;;;;;;6.53;5.70;;;;;;;;;;5071712;28;20311;-85
2021/10/19 13:53:53;;;;;;;6.20;5.60;;;;;;;;;;5075328;28;20201;-85
2021/10/19 13:56:38;;;;;;;5.67;5.17;;;;;;;;;;5075716;28;20213;-86
2021/10/19 13:59:23;;;;;;;6.90;5.03;;;;;;;;;;5075486;28;20209;-84
2021/10/19 14:02:08;;;;;;;5.73;5.20;;;;;;;;;;5075578;28;20190;-87
2021/10/19 14:04:54;;;;;;;6.83;4.63;;;;;;;;;;5075694;28;20233;-86
2021/10/19 14:07:39;;;;;;;4.70;4.30;;;;;;;;;;5075542;28;20186;-87
2021/10/19 14:10:24;;;;;;;8.53;4.67;;;;;;;;;;5075448;28;20190;-85
2021/10/19 14:13:09;;;;;;;4.33;4.03;;;;;;;;;;5075132;28;20509;-86
2021/10/19 14:15:55;;;;;;;11.93;4.73;;;;;;;;;;5073368;28;20332;-86
2021/10/19 14:18:39;;;;;;;6.40;4.70;;;;;;;;;;5075102;28;20190;-85
2021/10/19 14:21:26;;;;;;;6.77;4.33;;;;;;;;;;5075091;28;20591;-88
2021/10/19 14:24:11;;;;;;;4.57;4.17;;;;;;;;;;5075164;28;20185;-87
2021/10/19 14:26:56;;;;;;;4.33;3.93;;;;;;;;;;5074955;28;20542;-88
2021/10/19 14:29:41;;;;;;;6.40;4.33;;;;;;;;;;5074706;28;20232;-87
2021/10/19 14:32:27;;;;;;;6.40;4.30;;;;;;;;;;5074765;28;20308;-87
2021/10/19 14:35:13;;;;;;;4.67;4.07;;;;;;;;;;5074822;28;20190;-87
2021/10/19 14:37:59;;;;;;;7.33;4.20;;;;;;;;;;5074903;28;20221;-88
2021/10/19 14:40:44;;;;;;;6.10;4.57;;;;;;;;;;5074559;28;20297;-87
2021/10/19 14:43:29;;;;;;;5.73;4.37;;;;;;;;;;5074558;28;20597;-89
2021/10/19 14:46:14;;;;;;;4.30;4.00;;;;;;;;;;5074701;28;20268;-85
2021/10/19 14:48:59;;;;;;;4.33;3.93;;;;;;;;;;5074136;28;20678;-86
2021/10/19 14:51:46;;;;;;;4.77;4.20;;;;;;;;;;5074272;28;20221;-84
2021/10/19 14:54:32;;;;;;;4.30;4.00;;;;;;;;;;5075398;28;20700;-88
2021/10/19 14:57:18;;;;;;;7.80;4.20;;;;;;;;;;5073447;28;20217;-84
2021/10/19 15:00:04;;;;;;;4.43;4.13;;;;;;;;;;5073522;28;20193;-85
2021/10/19 15:02:49;;;;;;;3.97;3.77;;;;;;;;;;5072855;28;20189;-85
2021/10/19 15:05:35;;;;;;;4.00;3.70;;;;;;;;;;5074763;28;20186;-84
2021/10/19 15:08:20;;;;;;;5.13;4.63;;;;;;;;;;5075141;28;20189;-86
2021/10/19 15:11:06;;;;;;;6.53;3.90;;;;;;;;;;5073854;28;20323;-84
2021/10/19 15:13:51;;;;;;;4.37;3.97;;;;;;;;;;5073693;28;20189;-84
2021/10/19 15:16:36;;;;;;;4.50;3.67;;;;;;;;;;5073483;28;20673;-85
2021/10/19 15:19:21;;;;;;;4.43;3.93;;;;;;;;;;5073494;28;20190;-85
2021/10/19 15:22:07;;;;;;;5.17;3.60;;;;;;;;;;5073734;28;20206;-84
2021/10/19 15:24:52;;;;;;;5.63;3.63;;;;;;;;;;5073320;28;20186;-84
2021/10/19 15:27:42;;;;;;;10.00;5.03;;;;;;;;;;5073241;28;20190;-83
2021/10/19 15:30:27;;;;;;;4.53;4.07;;;;;;;;;;5073312;28;20186;-83
2021/10/19 15:33:11;;;;;;;4.90;3.83;;;;;;;;;;5073267;28;20294;-85
2021/10/19 15:35:57;;;;;;;4.80;3.67;;;;;;;;;;5073180;28;20193;-83
2021/10/19 15:38:41;;;;;;;3.90;3.53;;;;;;;;;;5073307;28;20206;-84
2021/10/19 15:41:26;;;;;;;4.23;3.43;;;;;;;;;;5073019;28;20186;-83
2021/10/19 15:44:13;;;;;;;4.27;3.70;;;;;;;;;;5073245;28;20662;-84
2021/10/19 15:46:58;;;;;;;4.90;3.70;;;;;;;;;;5072837;28;20716;-84
2021/10/19 15:49:43;;;;;;;3.73;3.47;;;;;;;;;;5072766;28;20190;-84
2021/10/19 15:52:27;;;;;;;5.70;4.00;;;;;;;;;;5073158;28;20196;-85
2021/10/19 15:55:13;;;;;;;4.27;3.87;;;;;;;;;;5073046;28;20566;-85
2021/10/19 15:57:58;;;;;;;6.23;3.90;;;;;;;;;;5073017;28;20620;-85
2021/10/19 16:00:44;;;;;;;4.40;3.80;;;;;;;;;;5072936;28;20283;-85
2021/10/19 16:03:30;;;;;;;7.37;4.17;;;;;;;;;;5072923;28;20554;-85
2021/10/19 16:06:15;;;;;;;4.13;3.77;;;;;;;;;;5073727;28;20280;-87
2021/10/19 16:09:00;;;;;;;4.20;3.80;;;;;;;;;;5072877;28;20186;-87
2021/10/19 16:11:45;;;;;;;4.07;3.77;;;;;;;;;;5072568;28;20260;-87